Time;durP1;ratioP1;P1;durP2;ratioP2;P2;SDS_P1;SDS_P2;PMS_P1;PMS_P2;Temp;Humidity;BMP_temperature;BMP_pressure;BME280_temperature;BME280_humidity;BME280_pressure;Samples;Min_cycle;Max_cycle;Signal;HPM_P1;HPM_P2
2023/09/15 00:01:49;;;;;;;11.13;7.45;;;;;;;22.83;56.34;99424.03;4908740;29;20051;-93
2023/09/15 00:04:15;;;;;;;10.38;7.63;;;;;;;22.76;55.57;99424.63;4908182;29;20051;-92
2023/09/15 00:06:40;;;;;;;11.73;7.70;;;;;;;22.88;55.81;99446.53;4909562;29;20067;-92
2023/09/15 00:09:08;;;;;;;10.63;7.88;;;;;;;22.81;55.87;99449.09;4907650;29;20060;-94
2023/09/15 00:11:40;;;;;;;11.90;7.60;;;;;;;22.80;56.18;99448.28;4940879;28;20035;-93
2023/09/15 00:14:09;;;;;;;;;;;;;;;22.81;55.81;99443.59;4910855;29;20071;-94
2023/09/15 00:16:35;;;;;;;14.02;7.72;;;;;;;22.69;56.13;99436.19;4924383;29;19911;-93
2023/09/15 00:19:03;;;;;;;13.98;7.30;;;;;;;22.67;55.67;99435.75;4909635;29;20039;-93
2023/09/15 00:21:29;;;;;;;14.15;7.22;;;;;;;22.70;55.55;99437.81;4924031;29;20028;-94
2023/09/15 00:23:54;;;;;;;13.82;7.47;;;;;;;22.58;56.35;99435.09;4908708;29;20589;-93
2023/09/15 00:26:23;;;;;;;14.25;8.13;;;;;;;22.53;56.33;99430.63;4908924;29;20047;-94
2023/09/15 00:28:49;;;;;;;10.52;7.40;;;;;;;22.60;56.23;99441.84;4925530;29;20047;-93
2023/09/15 00:31:14;;;;;;;11.73;7.38;;;;;;;22.65;55.91;99438.03;4908631;29;20130;-94
2023/09/15 00:33:40;;;;;;;13.23;7.95;;;;;;;22.68;55.72;99440.09;4925027;29;20043;-94
2023/09/15 00:36:06;;;;;;;13.98;7.22;;;;;;;22.65;55.06;99429.81;4909931;29;20490;-94
2023/09/15 00:38:32;;;;;;;13.20;7.30;;;;;;;22.67;55.59;99429.47;4956107;29;20050;-93
2023/09/15 00:40:58;;;;;;;13.82;7.45;;;;;;;22.71;55.54;99435.88;4908909;29;20039;-93
2023/09/15 00:43:23;;;;;;;9.50;7.50;;;;;;;22.71;55.43;99422.94;4908385;29;20039;-93
2023/09/15 00:45:49;;;;;;;12.13;7.32;;;;;;;22.75;55.65;99440.31;4914200;29;20058;-94
2023/09/15 00:48:15;;;;;;;16.40;7.95;;;;;;;22.79;55.82;99446.69;4928261;29;20426;-92
2023/09/15 00:50:40;;;;;;;12.80;7.28;;;;;;;22.62;55.17;99424.22;4924326;29;20406;-94
2023/09/15 00:53:09;;;;;;;9.32;7.10;;;;;;;22.67;55.21;99444.00;4946419;29;20047;-93
2023/09/15 00:55:35;;;;;;;10.15;7.57;;;;;;;22.71;55.19;99461.34;4942242;29;20038;-93
2023/09/15 00:58:03;;;;;;;9.60;6.97;;;;;;;22.63;55.25;99456.81;4926095;29;20118;-94
2023/09/15 01:00:29;;;;;;;14.07;7.35;;;;;;;22.55;55.87;99449.50;4941041;29;20047;-94
2023/09/15 01:02:54;;;;;;;12.15;6.88;;;;;;;22.56;56.62;99460.16;4926639;29;20138;-94
2023/09/15 01:05:23;;;;;;;14.52;7.90;;;;;;;22.57;56.32;99456.25;4926787;29;20429;-93
2023/09/15 01:07:50;;;;;;;14.23;7.38;;;;;;;22.45;56.07;99447.25;4943308;29;20035;-94
2023/09/15 01:10:16;;;;;;;12.02;7.15;;;;;;;22.40;55.99;99440.06;4943059;29;20050;-93
2023/09/15 01:12:45;;;;;;;9.40;7.00;;;;;;;22.44;56.11;99451.94;4941851;29;20502;-94
2023/09/15 01:15:10;;;;;;;9.85;7.10;;;;;;;22.47;56.89;99469.66;4958345;29;20046;-94
2023/09/15 01:17:53;;;;;;;11.43;8.02;;;;;;;22.31;56.51;99448.41;4942680;29;20035;-94
2023/09/15 01:20:47;;;;;;;13.50;7.63;;;;;;;22.45;56.93;99469.97;4958291;29;20043;-93
2023/09/15 01:23:34;;;;;;;14.45;7.43;;;;;;;22.43;56.88;99469.53;4963009;28;20043;-93
2023/09/15 01:26:36;;;;;;;10.65;7.00;;;;;;;22.43;56.73;99469.53;4941469;29;20043;-94
2023/09/15 01:29:14;;;;;;;12.40;7.50;;;;;;;22.27;56.57;99453.00;4954377;29;20043;-94
2023/09/15 01:31:40;;;;;;;11.35;7.55;;;;;;;22.40;57.00;99472.97;4935013;29;20044;-94
2023/09/15 01:34:06;;;;;;;10.73;7.35;;;;;;;22.40;57.53;99468.28;4957839;29;20039;-94
2023/09/15 01:36:31;;;;;;;14.23;7.65;;;;;;;22.37;57.08;99476.41;4941534;29;20032;-93
2023/09/15 01:38:57;;;;;;;10.25;7.13;;;;;;;22.28;56.62;99453.78;4926064;29;20059;-93
2023/09/15 01:41:22;;;;;;;10.57;6.80;;;;;;;22.31;56.34;99462.13;4958004;29;20036;-94
2023/09/15 01:43:48;;;;;;;10.20;6.78;;;;;;;22.48;56.34;99474.00;4959481;29;20035;-94
2023/09/15 01:46:13;;;;;;;15.07;6.95;;;;;;;22.47;56.43;99475.94;4944001;29;20035;-94
2023/09/15 01:48:40;;;;;;;9.75;7.05;;;;;;;22.37;56.22;99452.53;4948299;29;20039;-94
2023/09/15 01:51:06;;;;;;;13.05;7.80;;;;;;;22.44;56.36;99467.59;4945034;29;20074;-95
2023/09/15 01:53:31;;;;;;;11.10;7.00;;;;;;;22.33;56.71;99454.34;4954848;29;20532;-94
2023/09/15 01:55:57;;;;;;;12.88;7.00;;;;;;;22.42;56.41;99469.91;4926521;29;20062;-91
2023/09/15 01:58:22;;;;;;;10.05;7.00;;;;;;;22.40;56.13;99471.03;4925826;29;20035;-94
2023/09/15 02:00:48;;;;;;;9.52;6.65;;;;;;;22.34;56.43;99463.38;4927500;29;20039;-93
2023/09/15 02:03:14;;;;;;;9.00;6.57;;;;;;;22.43;56.22;99480.50;4928066;29;20395;-93
2023/09/15 02:05:40;;;;;;;10.52;6.90;;;;;;;22.40;56.72;99482.00;4928637;29;20039;-94
2023/09/15 02:08:05;;;;;;;9.90;7.72;;;;;;;22.39;56.93;99477.69;4925678;29;20039;-94
2023/09/15 02:10:31;;;;;;;11.30;7.25;;;;;;;22.44;57.08;99482.13;4926083;29;20046;-93
2023/09/15 02:12:56;;;;;;;8.55;6.50;;;;;;;22.33;56.66;99470.81;4927057;29;20039;-94
2023/09/15 02:15:22;;;;;;;11.63;7.00;;;;;;;22.41;55.98;99482.78;4928017;29;20031;-94
2023/09/15 02:17:51;;;;;;;8.18;6.15;;;;;;;22.27;55.99;99465.91;4941850;29;20659;-94
2023/09/15 02:20:18;;;;;;;9.45;6.70;;;;;;;22.30;56.08;99467.97;4910956;29;20107;-94
2023/09/15 02:22:44;;;;;;;9.32;7.05;;;;;;;22.22;56.96;99461.41;4909204;29;20028;-93
2023/09/15 02:25:09;;;;;;;9.35;7.13;;;;;;;22.40;57.27;99490.22;4910128;29;20459;-94
2023/09/15 02:27:38;;;;;;;9.70;7.05;;;;;;;22.40;56.97;99497.66;4937592;29;20038;-94
2023/09/15 02:30:07;;;;;;;11.15;6.88;;;;;;;22.38;56.87;99495.25;4927010;29;20497;-94
2023/09/15 02:32:33;;;;;;;10.35;6.55;;;;;;;22.38;57.05;99495.25;4929364;29;20145;-93
2023/09/15 02:34:59;;;;;;;10.65;6.45;;;;;;;22.31;56.82;99494.25;4945258;29;20047;-94
2023/09/15 02:37:24;;;;;;;13.05;7.05;;;;;;;22.20;57.02;99489.22;4924863;29;20046;-93
2023/09/15 02:39:50;;;;;;;12.73;7.72;;;;;;;22.19;57.39;99486.81;4943957;29;20437;-94
2023/09/15 02:42:15;;;;;;;12.68;7.68;;;;;;;22.27;57.33;99493.34;4930425;29;20067;-94
2023/09/15 02:44:44;;;;;;;16.77;7.80;;;;;;;22.23;58.64;99484.19;4945628;29;20103;-94
2023/09/15 02:47:09;;;;;;;13.30;8.48;;;;;;;22.16;59.93;99485.56;4944945;29;20461;-93
2023/09/15 02:49:35;;;;;;;11.18;8.15;;;;;;;22.15;60.44;99488.63;4929424;29;20039;-94
2023/09/15 02:52:05;;;;;;;12.35;8.20;;;;;;;22.08;59.88;99491.13;4944951;29;20077;-94
2023/09/15 02:54:30;;;;;;;14.13;8.68;;;;;;;22.09;60.19;99498.22;4923070;29;20067;-91
2023/09/15 02:56:56;;;;;;;11.40;8.25;;;;;;;22.01;62.25;99502.66;4956374;28;20031;-94
2023/09/15 02:59:21;;;;;;;12.73;7.75;;;;;;;21.96;62.26;99500.97;4928055;29;20035;-94
2023/09/15 03:01:47;;;;;;;13.25;8.52;;;;;;;21.90;62.71;99491.34;4944334;29;20035;-94
2023/09/15 03:04:13;;;;;;;18.27;9.68;;;;;;;21.86;63.79;99495.13;4928757;29;20042;-94
2023/09/15 03:06:39;;;;;;;19.55;9.90;;;;;;;21.77;64.63;99487.81;4945270;29;20023;-92
2023/09/15 03:09:06;;;;;;;19.92;9.45;;;;;;;21.74;65.32;99487.69;4929298;29;20027;-93
2023/09/15 03:11:31;;;;;;;17.98;10.75;;;;;;;21.69;66.25;99499.66;4912838;29;20027;-93
2023/09/15 03:13:57;;;;;;;13.48;9.57;;;;;;;21.66;67.15;99497.59;4940946;29;20102;-92
2023/09/15 03:16:23;;;;;;;18.50;9.10;;;;;;;21.56;67.32;99492.53;4928813;29;20045;-94
2023/09/15 03:18:49;;;;;;;15.27;9.93;;;;;;;21.56;67.43;99498.84;4925411;29;20032;-93
2023/09/15 03:21:14;;;;;;;14.77;9.75;;;;;;;21.57;67.58;99505.13;4937631;29;20384;-95
2023/09/15 03:23:40;;;;;;;17.00;9.98;;;;;;;21.45;66.99;99502.34;4925472;29;20078;-94
2023/09/15 03:26:06;;;;;;;15.20;9.40;;;;;;;21.42;66.81;99506.56;4913048;29;20098;-94
2023/09/15 03:28:32;;;;;;;17.15;9.80;;;;;;;21.35;68.00;99504.34;4928755;29;20499;-93
2023/09/15 03:30:58;;;;;;;17.88;10.05;;;;;;;21.26;69.40;99511.03;4913287;29;20046;-94
2023/09/15 03:33:23;;;;;;;15.32;9.80;;;;;;;21.22;69.73;99510.91;4943870;28;20035;-94
2023/09/15 03:35:49;;;;;;;21.27;10.02;;;;;;;21.18;69.12;99513.50;4912968;29;20047;-94
2023/09/15 03:38:14;;;;;;;22.17;10.05;;;;;;;21.08;69.22;99508.44;4943692;29;20090;-95
2023/09/15 03:40:40;;;;;;;18.17;10.52;;;;;;;21.01;70.61;99521.09;4961346;29;20425;-94
2023/09/15 03:43:06;;;;;;;15.85;11.25;;;;;;;20.82;71.05;99510.63;4944164;29;20506;-94
2023/09/15 03:46:32;;;;;;;15.88;10.73;;;;;;;20.91;71.78;99531.28;4945312;29;20038;-94
2023/09/15 03:48:57;;;;;;;19.48;10.38;;;;;;;20.75;71.85;99522.91;4958759;29;20043;-95
2023/09/15 03:51:23;;;;;;;15.38;10.40;;;;;;;20.71;72.02;99524.69;4960690;28;20039;-95
2023/09/15 03:53:48;;;;;;;18.33;10.25;;;;;;;20.68;71.95;99524.56;4961711;29;20062;-95
2023/09/15 03:56:16;;;;;;;15.40;10.45;;;;;;;20.75;72.06;99546.69;4928413;29;20042;-95
2023/09/15 03:58:41;;;;;;;18.13;10.98;;;;;;;20.78;72.49;99548.78;4944494;29;20038;-95
2023/09/15 04:01:07;;;;;;;19.42;11.80;;;;;;;20.69;72.27;99540.66;4944762;29;20031;-95
2023/09/15 04:03:34;;;;;;;21.50;12.00;;;;;;;20.78;71.81;99552.31;4944497;29;20063;-95
2023/09/15 04:06:00;;;;;;;16.92;9.63;;;;;;;20.61;69.45;99525.09;4944280;29;20066;-95
2023/09/15 04:08:25;;;;;;;12.75;8.93;;;;;;;20.61;68.62;99546.16;4942672;29;20162;-95
2023/09/15 04:11:03;;;;;;;14.32;9.45;;;;;;;20.62;69.29;99564.19;4943051;29;20043;-93
2023/09/15 04:13:29;;;;;;;14.82;10.18;;;;;;;20.69;68.93;99559.78;4961321;28;20035;-94
2023/09/15 04:15:56;;;;;;;15.38;9.23;;;;;;;20.77;68.48;99561.69;4942739;29;20086;-95
2023/09/15 04:18:22;;;;;;;11.85;8.50;;;;;;;20.76;68.22;99559.25;4943548;29;20028;-95
2023/09/15 04:20:49;;;;;;;13.25;9.70;;;;;;;20.76;69.25;99564.75;4961194;29;20478;-95
2023/09/15 04:23:17;;;;;;;14.63;8.68;;;;;;;20.67;69.66;99562.06;4943220;29;20027;-94
2023/09/15 04:25:43;;;;;;;13.75;9.20;;;;;;;20.68;68.64;99569.13;4960217;28;20031;-93
2023/09/15 04:28:08;;;;;;;11.05;8.05;;;;;;;20.66;67.22;99578.81;4942906;29;20066;-94
2023/09/15 04:30:34;;;;;;;12.63;8.45;;;;;;;20.81;67.20;99599.31;4936095;29;20110;-93
2023/09/15 04:33:00;;;;;;;14.00;8.93;;;;;;;20.54;69.25;99577.56;4925450;29;20059;-93
2023/09/15 04:35:27;;;;;;;17.65;13.85;;;;;;;20.48;70.71;99570.69;4893148;29;20066;-94
2023/09/15 04:38:04;;;;;;;14.65;8.35;;;;;;;20.47;69.04;99568.25;4909294;29;20099;-92
2023/09/15 04:40:29;;;;;;;14.93;8.75;;;;;;;20.67;68.98;99588.59;4878081;29;20036;-92
2023/09/15 04:42:55;;;;;;;14.52;9.55;;;;;;;20.39;71.92;99587.09;4890107;29;20061;-91
2023/09/15 04:45:24;;;;;;;13.63;8.73;;;;;;;20.15;72.30;99582.22;4906833;29;20499;-91
2023/09/15 04:47:50;;;;;;;15.85;11.15;;;;;;;20.23;70.58;99580.56;4938498;29;20044;-91
2023/09/15 04:50:16;;;;;;;17.02;8.77;;;;;;;20.30;70.85;99602.75;4911929;29;20076;-92
2023/09/15 04:52:44;;;;;;;12.52;8.85;;;;;;;20.36;70.74;99612.38;4921036;29;20040;-91
2023/09/15 04:55:10;;;;;;;13.07;8.60;;;;;;;20.46;70.06;99610.41;4883146;28;20036;-93
2023/09/15 04:57:36;;;;;;;12.63;8.93;;;;;;;20.52;69.38;99598.97;4913160;29;20043;-94
2023/09/15 05:00:04;;;;;;;11.70;9.40;;;;;;;20.64;69.65;99600.22;4910615;29;20458;-95
2023/09/15 05:02:30;;;;;;;13.93;9.07;;;;;;;20.63;69.24;99599.44;4910761;29;20043;-93
2023/09/15 05:04:56;;;;;;;13.85;8.77;;;;;;;20.77;67.88;99610.94;4892919;29;20046;-93
2023/09/15 05:07:25;;;;;;;11.52;8.75;;;;;;;20.64;67.20;99578.34;4909565;29;20031;-93
2023/09/15 05:09:51;;;;;;;15.52;9.02;;;;;;;20.87;68.20;99603.47;4894763;29;20549;-96
2023/09/15 05:12:17;;;;;;;20.40;9.43;;;;;;;20.84;68.72;99604.94;4895577;29;20098;-94
2023/09/15 05:14:43;;;;;;;16.98;9.73;;;;;;;20.79;69.66;99597.72;4897723;29;20035;-96
2023/09/15 05:17:47;;;;;;;12.98;8.75;;;;;;;20.73;69.42;99599.06;4893647;29;20131;-96
2023/09/15 05:20:17;;;;;;;18.42;9.10;;;;;;;20.75;69.10;99599.53;4895668;29;20036;-96
2023/09/15 05:22:49;;;;;;;13.40;8.25;;;;;;;20.75;69.08;99613.19;4887007;29;20111;-94
2023/09/15 05:25:14;;;;;;;19.13;9.65;;;;;;;20.63;69.85;99623.22;4885804;29;20036;-93
2023/09/15 05:27:40;;;;;;;20.73;10.68;;;;;;;20.55;70.51;99624.88;4887134;29;20040;-93
2023/09/15 05:30:09;;;;;;;19.13;9.10;;;;;;;20.35;71.12;99601.78;4878314;29;20033;-94
2023/09/15 05:32:34;;;;;;;15.88;13.00;;;;;;;20.45;71.58;99622.50;4887296;29;20078;-92
2023/09/15 05:35:00;;;;;;;13.18;9.50;;;;;;;20.46;70.97;99624.09;4896826;29;20036;-95
2023/09/15 05:37:25;;;;;;;11.85;9.05;;;;;;;20.65;70.73;99642.84;4912395;29;20086;-93
2023/09/15 05:39:51;;;;;;;14.63;9.18;;;;;;;20.63;70.26;99639.66;4899254;29;20051;-95
2023/09/15 05:42:16;;;;;;;11.50;8.45;;;;;;;20.70;69.53;99640.75;4903982;29;20043;-94
2023/09/15 05:44:42;;;;;;;13.88;9.15;;;;;;;20.83;69.79;99643.56;4922407;29;20039;-93
2023/09/15 05:47:18;;;;;;;13.05;9.00;;;;;;;20.84;69.10;99646.00;4918738;29;20039;-95
2023/09/15 05:49:54;;;;;;;10.52;8.63;;;;;;;20.86;68.62;99621.84;4921625;29;20038;-92
2023/09/15 05:52:21;;;;;;;12.80;9.35;;;;;;;20.95;69.25;99629.97;4969139;29;20122;-93
2023/09/15 05:54:49;;;;;;;17.15;11.23;;;;;;;21.03;69.41;99648.28;4940401;29;20031;-93
2023/09/15 05:57:15;;;;;;;19.52;12.23;;;;;;;20.94;69.29;99634.66;4954299;29;20027;-92
2023/09/15 05:59:46;;;;;;;19.85;12.20;;;;;;;20.86;69.88;99640.19;4954184;29;20067;-93
2023/09/15 06:02:14;;;;;;;16.35;11.63;;;;;;;21.04;69.33;99660.03;4968589;29;20034;-94
2023/09/15 06:04:42;;;;;;;20.55;13.35;;;;;;;21.06;68.00;99644.09;4951821;29;20035;-89
2023/09/15 06:07:09;;;;;;;18.83;11.07;;;;;;;21.25;68.08;99657.31;4948996;29;20036;-89
2023/09/15 06:09:38;;;;;;;18.60;11.38;;;;;;;21.16;66.90;99640.97;4948857;29;20031;-91
2023/09/15 06:12:10;;;;;;;24.95;11.65;;;;;;;21.19;68.97;99664.94;4983264;28;20090;-95
2023/09/15 06:14:37;;;;;;;14.70;10.13;;;;;;;21.24;68.67;99661.22;4949118;29;20535;-92
2023/09/15 06:17:03;;;;;;;14.07;8.82;;;;;;;21.18;67.92;99652.38;4964730;29;20198;-95
2023/09/15 06:19:28;;;;;;;13.65;9.75;;;;;;;21.20;67.48;99639.94;4952244;29;20063;-94
2023/09/15 06:22:03;;;;;;;16.75;9.80;;;;;;;21.37;66.77;99652.75;4966162;29;20054;-93
2023/09/15 06:24:29;;;;;;;16.10;8.52;;;;;;;21.38;65.31;99643.38;4948515;29;20032;-93
2023/09/15 06:27:00;;;;;;;17.15;9.32;;;;;;;21.58;65.11;99665.63;4965870;29;20047;-94
2023/09/15 06:29:37;;;;;;;20.92;12.27;;;;;;;21.59;67.02;99670.00;4949296;29;20031;-93
2023/09/15 06:32:08;;;;;;;17.52;9.30;;;;;;;21.54;66.25;99667.44;4928393;29;20052;-92
2023/09/15 06:34:37;;;;;;;13.90;8.60;;;;;;;21.53;66.58;99661.16;4963235;29;20043;-92
2023/09/15 06:37:03;;;;;;;13.75;9.50;;;;;;;21.61;66.47;99667.72;4936761;29;20027;-93
2023/09/15 06:39:28;;;;;;;11.60;8.18;;;;;;;21.63;66.21;99648.22;4930261;29;20035;-90
2023/09/15 06:41:57;;;;;;;10.50;8.98;;;;;;;21.66;66.55;99656.53;4929203;29;20054;-90
2023/09/15 06:44:23;;;;;;;17.13;11.02;;;;;;;21.90;65.60;99666.81;4929207;29;20042;-89
2023/09/15 06:46:48;;;;;;;12.57;8.45;;;;;;;21.98;64.57;99665.13;4954306;28;20453;-91
2023/09/15 06:49:21;;;;;;;21.85;7.10;;;;;;;22.20;63.17;99669.41;4961365;28;20035;-92
2023/09/15 06:51:47;;;;;;;14.68;8.30;;;;;;;22.24;63.20;99664.88;4930842;29;20046;-93
2023/09/15 06:54:22;;;;;;;9.60;7.45;;;;;;;22.49;61.88;99670.41;4931414;29;20070;-95
2023/09/15 06:57:07;;;;;;;12.35;7.65;;;;;;;22.49;62.02;99665.72;4932587;29;20027;-92
2023/09/15 06:59:33;;;;;;;12.85;7.78;;;;;;;22.38;63.10;99665.38;4951064;29;20095;-96
2023/09/15 07:01:59;;;;;;;24.25;10.43;;;;;;;22.41;63.19;99658.41;4919449;29;20072;-96
2023/09/15 07:04:31;;;;;;;13.48;9.95;;;;;;;22.70;62.88;99689.53;4994454;23;20051;-94
2023/09/15 07:06:57;;;;;;;11.88;8.05;;;;;;;22.78;62.71;99688.63;4955416;28;20047;-93
2023/09/15 07:09:33;;;;;;;15.07;8.93;;;;;;;22.72;62.06;99660.63;4951927;28;20117;-93
2023/09/15 07:12:09;;;;;;;;;;;;;;;;;;;;;
2023/09/15 07:15:06;;;;;;;;;;;;;;;;;;;;;
2023/09/15 07:21:14;;;;;;;13.57;7.05;;;;;;;23.06;61.99;99675.03;4891227;29;20029;-95
2023/09/15 07:31:42;;;;;;;;;;;;;;;;;;;;;
2023/09/15 07:51:16;;;;;;;10.90;6.97;;;;;;;23.51;57.83;99665.81;4824942;29;20045;-94
2023/09/15 07:53:47;;;;;;;9.98;6.45;;;;;;;23.46;59.31;99651.50;4855157;29;20056;-92
2023/09/15 07:56:58;;;;;;;;;;;;;;;;;;;;;
2023/09/15 07:59:59;;;;;;;9.07;6.72;;;;;;;23.81;57.96;99651.75;4962740;28;20123;-94
2023/09/15 08:02:26;;;;;;;7.63;6.35;;;;;;;23.81;57.39;99635.25;4961417;28;20042;-93
2023/09/15 08:22:02;;;;;;;7.78;5.60;;;;;;;24.85;53.37;99648.91;6045003;23;20019;-95
2023/09/15 08:24:48;;;;;;;;;;;;;;;;;;;;;
2023/09/15 08:27:22;;;;;;;9.23;5.82;;;;;;;24.97;52.00;99617.69;5968970;23;19987;-94
2023/09/15 08:29:49;;;;;;;8.98;5.60;;;;;;;25.13;52.59;99625.91;6012986;23;20006;-94
2023/09/15 08:43:29;;;;;;;;;;;;;;;;;;;;;
2023/09/15 08:46:08;;;;;;;;;;;;;;;;;;;;;
2023/09/15 08:49:08;;;;;;;9.48;5.55;;;;;;;25.67;51.29;99599.47;6095488;23;20030;-95
2023/09/15 08:52:00;;;;;;;9.43;6.15;;;;;;;25.98;50.23;99624.16;5999508;23;20036;-93
2023/09/15 08:54:28;;;;;;;11.18;5.95;;;;;;;25.90;49.74;99596.75;6071815;23;20025;-94
2023/09/15 09:11:11;;;;;;;8.20;5.50;;;;;;;26.14;47.62;99581.81;6175299;22;25066;-94
2023/09/15 09:13:54;;;;;;;8.65;5.70;;;;;;;26.25;47.63;99577.31;6122678;23;20018;-94
2023/09/15 09:19:43;;;;;;;13.18;7.72;;;;;;;26.70;47.96;99594.19;6174304;22;20022;-95
2023/09/15 09:22:20;;;;;;;;;;;;;;;;;;;;;
2023/09/15 09:25:35;;;;;;;6.65;5.28;;;;;;;26.64;46.51;99565.28;6153071;23;20013;-94
2023/09/15 09:30:45;;;;;;;10.05;6.80;;;;;;;26.85;47.57;99579.41;6175018;22;20035;-96
2023/09/15 09:33:21;;;;;;;9.82;6.10;;;;;;;26.90;47.63;99572.78;6102056;23;20008;-93
2023/09/15 09:39:32;;;;;;;;;;;;;;;;;;;;;
2023/09/15 09:52:40;;;;;;;10.60;6.30;;;;;;;28.27;43.56;99553.75;5993372;24;20015;-95
2023/09/15 09:55:27;;;;;;;7.30;5.13;;;;;;;28.34;43.40;99559.31;5951494;24;20071;-94
2023/09/15 09:57:53;;;;;;;7.93;5.20;;;;;;;28.60;42.21;99588.06;6031253;23;20070;-93
2023/09/15 10:00:24;;;;;;;10.90;5.88;;;;;;;28.53;42.86;99561.06;6122149;23;20036;-95
2023/09/15 10:02:50;;;;;;;7.90;5.38;;;;;;;28.71;41.77;99565.94;6127149;23;20001;-94
2023/09/15 10:05:21;;;;;;;8.95;5.95;;;;;;;28.72;41.43;99543.41;6103957;23;20012;-95
2023/09/15 10:14:54;;;;;;;8.55;5.28;;;;;;;29.12;41.20;99568.56;6175208;23;20002;-93
2023/09/15 10:17:35;;;;;;;19.88;15.75;;;;;;;29.11;40.98;99544.78;6146977;23;20006;-92
2023/09/15 10:20:15;;;;;;;9.05;5.25;;;;;;;29.00;40.40;99533.63;6148483;23;19997;-96
2023/09/15 10:22:41;;;;;;;10.77;5.83;;;;;;;29.12;40.85;99541.63;6099695;23;20005;-93
2023/09/15 10:36:13;;;;;;;;;;;;;;;;;;;;;
2023/09/15 10:38:50;;;;;;;7.13;3.97;;;;;;;28.77;40.30;99556.09;6145569;23;20001;-93
2023/09/15 10:45:20;;;;;;;7.63;4.53;;;;;;;28.24;40.77;99523.25;6081309;23;20081;-96
2023/09/15 10:51:15;;;;;;;9.23;4.28;;;;;;;28.10;41.36;99521.16;6075489;23;20119;-94
2023/09/15 10:57:12;;;;;;;5.70;4.18;;;;;;;28.10;41.67;99523.94;5969485;24;20012;-93
2023/09/15 10:59:54;;;;;;;4.57;4.03;;;;;;;28.21;41.62;99508.22;6007343;23;19991;-95
2023/09/15 11:02:30;;;;;;;8.48;4.78;;;;;;;28.16;41.24;99509.38;6037985;23;20003;-95
2023/09/15 11:08:00;;;;;;;7.72;4.55;;;;;;;28.35;40.95;99505.53;6084166;23;20056;-93
2023/09/15 11:10:32;;;;;;;9.35;5.03;;;;;;;28.40;40.58;99507.94;6030496;23;20019;-92
2023/09/15 11:13:10;;;;;;;;;;;;;;;28.51;40.44;99526.63;6003606;23;20104;-92
2023/09/15 11:15:38;;;;;;;6.78;4.75;;;;;;;28.33;40.21;99496.81;6027259;23;19910;-92
2023/09/15 11:18:13;;;;;;;7.13;4.57;;;;;;;28.51;41.15;99518.31;6025404;23;20013;-91
2023/09/15 11:27:37;;;;;;;6.90;4.68;;;;;;;28.56;39.98;99481.94;6039290;23;20014;-90
2023/09/15 11:30:06;;;;;;;7.60;5.13;;;;;;;28.70;39.35;99483.97;6029049;23;20007;-92
2023/09/15 11:32:55;;;;;;;6.97;4.88;;;;;;;28.76;39.21;99486.00;6079842;23;20006;-91
2023/09/15 11:35:24;;;;;;;7.63;5.18;;;;;;;28.88;39.09;99497.94;6081612;23;19998;-93
2023/09/15 11:41:46;;;;;;;;;;;;;;;;;;;;;
2023/09/15 11:44:43;;;;;;;5.95;4.80;;;;;;;29.06;38.34;99495.25;5977142;23;20380;-95
2023/09/15 11:47:09;;;;;;;10.15;4.97;;;;;;;29.04;38.56;99465.13;5975269;23;20003;-93
2023/09/15 11:49:43;;;;;;;5.90;4.90;;;;;;;29.20;38.44;99479.47;5975339;23;20384;-92
2023/09/15 11:52:15;;;;;;;8.82;5.72;;;;;;;29.31;37.84;99476.72;6050500;23;20002;-93
2023/09/15 11:55:08;;;;;;;;;;;;;;;;;;;;;
2023/09/15 11:57:43;;;;;;;7.13;4.72;;;;;;;29.26;38.09;99459.66;6117453;23;20028;-93
2023/09/15 12:00:30;;;;;;;7.82;4.95;;;;;;;29.44;37.10;99471.56;6148125;23;19985;-91
2023/09/15 12:02:56;;;;;;;9.60;4.93;;;;;;;29.52;37.18;99472.41;6133368;23;19981;-92
2023/09/15 12:05:33;;;;;;;6.53;5.10;;;;;;;29.41;36.71;99447.41;6143183;23;20011;-93
2023/09/15 12:08:02;;;;;;;10.52;5.90;;;;;;;29.50;37.29;99441.47;6142151;23;20011;-93
2023/09/15 12:10:28;;;;;;;9.02;5.57;;;;;;;29.56;37.37;99462.88;6195102;23;20076;-92
2023/09/15 12:13:14;;;;;;;12.43;5.30;;;;;;;29.56;37.66;99446.22;6122404;23;20001;-92
2023/09/15 12:15:51;;;;;;;6.82;5.28;;;;;;;29.52;37.36;99434.34;6149298;23;19997;-95
2023/09/15 12:18:51;;;;;;;8.57;5.50;;;;;;;29.76;35.91;99427.25;6113856;23;20005;-94
2023/09/15 12:21:28;;;;;;;12.70;9.77;;;;;;;29.90;36.60;99442.28;6110228;23;20070;-92
2023/09/15 12:24:31;;;;;;;9.35;5.78;;;;;;;29.84;35.31;99425.22;6111093;23;20002;-92
2023/09/15 12:27:03;;;;;;;9.18;6.13;;;;;;;29.99;36.04;99440.69;6131474;23;20008;-94
2023/09/15 12:29:32;;;;;;;11.82;6.05;;;;;;;29.91;35.24;99427.22;6086740;23;20009;-91
2023/09/15 12:35:46;;;;;;;7.15;5.35;;;;;;;29.87;35.59;99412.56;6054000;23;20015;-95
2023/09/15 12:38:42;;;;;;;7.45;5.47;;;;;;;29.92;35.32;99410.16;6110517;23;20045;-94
2023/09/15 12:44:22;;;;;;;7.55;5.47;;;;;;;29.79;36.21;99404.22;6153557;23;20001;-92
2023/09/15 12:47:02;;;;;;;8.93;5.95;;;;;;;29.85;36.47;99426.03;6120308;23;20002;-93
2023/09/15 12:56:35;;;;;;;8.63;5.20;;;;;;;30.00;35.67;99422.06;6167725;23;20427;-94
2023/09/15 13:03:01;;;;;;;15.43;9.48;;;;;;;30.07;36.52;99415.69;6049871;23;20007;-94
2023/09/15 13:05:35;;;;;;;12.38;9.18;;;;;;;30.01;35.79;99410.56;6032744;23;20390;-93
2023/09/15 13:09:19;;;;;;;;;;;;;;;;;;;;;
2023/09/15 13:11:42;;;;;;;9.10;5.75;;;;;;;29.82;35.87;99380.41;6020118;23;20020;-91
2023/09/15 13:14:20;;;;;;;8.20;5.60;;;;;;;29.94;36.08;99398.66;6058668;23;20042;-94
2023/09/15 13:16:48;;;;;;;8.25;6.20;;;;;;;30.14;35.54;99407.34;6080591;23;20032;-94
2023/09/15 13:19:22;;;;;;;8.77;5.78;;;;;;;30.17;35.77;99382.34;6069109;23;20005;-93
2023/09/15 13:25:11;;;;;;;9.90;6.40;;;;;;;30.15;35.89;99381.16;6149483;23;20417;-94
2023/09/15 13:27:44;;;;;;;8.07;6.28;;;;;;;30.13;35.99;99386.31;6114749;23;19998;-93
2023/09/15 13:30:15;;;;;;;7.78;6.20;;;;;;;30.11;35.81;99364.53;6117189;23;20001;-94
2023/09/15 13:32:58;;;;;;;10.38;6.15;;;;;;;30.15;35.47;99356.16;6120306;23;20013;-95
2023/09/15 13:35:24;;;;;;;10.43;5.72;;;;;;;30.19;35.47;99363.28;6141815;23;19998;-94
2023/09/15 13:38:01;;;;;;;8.48;5.40;;;;;;;30.23;34.87;99374.38;6121483;23;20001;-94
2023/09/15 13:40:29;;;;;;;8.23;5.47;;;;;;;30.14;35.62;99382.34;6058538;23;20049;-92
2023/09/15 13:42:55;;;;;;;9.05;5.32;;;;;;;30.00;36.32;99374.84;6057740;23;20014;-92
2023/09/15 13:45:21;;;;;;;8.95;5.47;;;;;;;29.86;36.57;99367.34;6060533;23;20037;-95
2023/09/15 13:47:46;;;;;;;6.03;5.32;;;;;;;29.87;37.33;99368.94;6057603;23;20050;-93
2023/09/15 13:50:12;;;;;;;17.15;11.88;;;;;;;29.87;36.85;99354.25;6059701;23;20065;-95
2023/09/15 13:52:41;;;;;;;10.70;6.90;;;;;;;29.95;36.98;99364.94;6058938;23;20018;-94
2023/09/15 13:55:14;;;;;;;13.73;6.72;;;;;;;29.92;37.04;99359.41;6056396;23;20513;-92
2023/09/15 13:57:45;;;;;;;6.63;5.15;;;;;;;29.83;36.56;99343.16;6057336;23;20002;-93
2023/09/15 14:00:11;;;;;;;7.57;5.40;;;;;;;29.87;36.50;99348.72;6082695;23;20071;-90
2023/09/15 14:02:38;;;;;;;8.68;5.75;;;;;;;29.89;36.51;99357.44;6102766;23;20006;-94
2023/09/15 14:05:06;;;;;;;8.77;4.75;;;;;;;29.91;35.65;99363.38;6110790;23;20009;-90
2023/09/15 14:07:32;;;;;;;11.40;6.00;;;;;;;29.88;36.29;99344.72;6163863;23;20042;-93
2023/09/15 14:09:58;;;;;;;11.30;6.00;;;;;;;29.85;36.76;99357.44;6139568;23;19994;-92
2023/09/15 14:12:24;;;;;;;11.18;6.72;;;;;;;29.89;36.66;99341.56;6141974;23;20017;-91
2023/09/15 14:14:52;;;;;;;11.48;5.85;;;;;;;29.93;36.49;99342.34;6161716;23;20365;-92
2023/09/15 14:17:17;;;;;;;8.05;5.35;;;;;;;29.80;36.47;99338.38;6164195;23;20002;-93
2023/09/15 14:19:43;;;;;;;10.80;5.95;;;;;;;29.79;36.72;99347.94;6164926;23;20117;-93
2023/09/15 14:22:15;;;;;;;10.55;5.28;;;;;;;29.70;36.84;99345.56;6162964;23;20005;-92
2023/09/15 14:24:44;;;;;;;8.15;5.30;;;;;;;29.81;36.88;99367.75;6140747;23;20443;-95
2023/09/15 14:27:12;;;;;;;8.90;5.57;;;;;;;29.57;36.40;99347.13;6137724;23;20006;-96
2023/09/15 14:29:38;;;;;;;8.48;5.38;;;;;;;29.52;36.51;99351.09;6139277;23;20001;-93
2023/09/15 14:32:22;;;;;;;9.75;5.82;;;;;;;29.47;37.02;99347.91;6115249;23;20021;-92
2023/09/15 14:34:48;;;;;;;10.88;7.68;;;;;;;29.56;37.23;99371.31;6117757;23;20045;-94
2023/09/15 14:37:13;;;;;;;9.77;6.47;;;;;;;29.45;37.12;99353.88;6111745;23;19989;-95